Time;durP1;ratioP1;P1;durP2;ratioP2;P2;SDS_P1;SDS_P2;PMS_P1;PMS_P2;Temp;Humidity;BMP_temperature;BMP_pressure;BME280_temperature;BME280_humidity;BME280_pressure;Samples;Min_cycle;Max_cycle;Signal;HPM_P1;HPM_P2
2022/02/08 04:35:09;;;;;;;4.07;2.70;;;;;;;8.57;46.11;100263.56;6907392;28;20203;-83
2022/02/08 04:38:42;;;;;;;8.73;2.70;;;;;;;8.57;46.07;100275.16;6900217;28;20189;-83
2022/02/08 04:42:10;;;;;;;6.73;2.60;;;;;;;8.29;46.46;100278.09;6893569;28;20242;-83
2022/02/08 04:45:46;;;;;;;8.13;2.60;;;;;;;8.57;46.17;100291.28;6893019;28;20195;-82
2022/02/08 04:49:09;;;;;;;10.60;4.40;;;;;;;8.62;46.31;100283.59;6893342;28;20253;-83
2022/02/08 04:52:32;;;;;;;5.77;3.33;;;;;;;8.34;46.02;100263.22;6893170;28;20285;-84
2022/02/08 04:56:00;;;;;;;8.73;3.70;;;;;;;8.30;46.34;100285.19;6894926;28;20212;-83
2022/02/08 04:59:37;;;;;;;5.13;3.10;;;;;;;8.42;46.17;100279.41;6894320;28;20195;-85
2022/02/08 05:50:10;;;;;;;4.27;2.67;;;;;;;7.80;47.14;100220.41;6889240;28;20230;-83
2022/02/08 05:53:42;;;;;;;7.50;3.23;;;;;;;8.09;46.97;100244.31;6888666;28;20221;-87
2022/02/08 06:48:26;;;;;;;6.27;3.10;;;;;;;8.11;48.19;100290.66;6919112;28;20227;-83
2022/02/08 06:51:47;;;;;;;3.03;2.30;;;;;;;7.91;47.90;100259.59;6908776;28;20228;-90
2022/02/08 06:55:10;;;;;;;7.77;2.63;;;;;;;7.84;48.10;100286.19;6904821;28;20207;-84
2022/02/08 06:59:02;;;;;;;5.77;2.90;;;;;;;8.46;47.18;100290.69;6913437;28;20213;-83
2022/02/08 07:02:27;;;;;;;4.03;2.80;;;;;;;8.36;46.71;100246.94;6904409;28;20221;-83
2022/02/08 07:05:52;;;;;;;5.40;3.10;;;;;;;8.72;46.04;100303.16;6892398;28;20239;-85
2022/02/08 07:09:18;;;;;;;8.03;2.90;;;;;;;8.85;45.96;100303.56;6889268;28;20642;-84
2022/02/08 07:12:40;;;;;;;9.47;3.20;;;;;;;8.38;45.69;100204.63;6912985;28;20223;-83
2022/02/08 07:16:02;;;;;;;5.77;2.53;;;;;;;8.84;45.58;100252.66;6914591;28;20209;-84
2022/02/08 07:19:24;;;;;;;8.27;2.60;;;;;;;8.86;44.97;100247.97;6914866;28;20226;-83
2022/02/08 07:22:47;;;;;;;9.40;3.27;;;;;;;8.43;46.41;100299.91;6914568;28;20226;-84
2022/02/08 07:26:09;;;;;;;5.83;3.20;;;;;;;8.76;46.29;100327.88;6915201;28;20206;-84
2022/02/08 07:29:32;;;;;;;9.17;2.93;;;;;;;8.70;46.41;100305.16;6915815;28;20234;-85
2022/02/08 07:32:55;;;;;;;2.83;2.10;;;;;;;9.07;48.25;100328.13;6903302;28;20238;-84
2022/02/08 07:36:26;;;;;;;6.53;3.33;;;;;;;8.87;45.40;100231.66;6890416;28;20222;-82
2022/02/08 07:39:52;;;;;;;7.27;3.10;;;;;;;8.66;46.75;100223.13;6892957;28;20582;-84
2022/02/08 07:43:21;;;;;;;5.17;3.27;;;;;;;8.80;47.61;100230.63;6890378;28;20604;-84
2022/02/08 07:46:42;;;;;;;10.47;3.77;;;;;;;9.42;46.89;100287.59;6890721;28;20221;-83
2022/02/08 07:50:06;;;;;;;6.27;3.20;;;;;;;9.30;47.92;100314.97;6914302;28;20682;-84
2022/02/08 07:53:28;;;;;;;6.87;4.10;;;;;;;9.74;46.82;100294.97;6909008;28;20651;-83
2022/02/08 07:56:53;;;;;;;7.00;3.17;;;;;;;9.74;46.99;100293.09;6917870;28;20206;-84
2022/02/08 08:00:15;;;;;;;8.90;3.13;;;;;;;9.81;46.75;100274.44;6906265;28;20563;-85
2022/02/08 08:03:40;;;;;;;12.17;3.67;;;;;;;9.74;47.25;100289.59;6913608;28;20203;-85
2022/02/08 08:07:02;;;;;;;6.33;3.20;;;;;;;9.89;46.43;100279.84;6912335;28;20563;-84
2022/02/08 08:10:29;;;;;;;8.40;3.13;;;;;;;9.30;46.78;100229.69;6903504;28;20228;-83
2022/02/08 08:14:02;;;;;;;7.60;3.17;;;;;;;9.01;46.22;100204.16;6916832;28;20196;-83
2022/02/08 08:17:52;;;;;;;6.13;2.80;;;;;;;9.87;45.59;100282.69;6901958;28;20220;-83
2022/02/08 08:21:13;;;;;;;6.33;2.90;;;;;;;9.99;46.21;100292.16;6897401;28;20359;-84
2022/02/08 08:24:35;;;;;;;9.23;3.53;;;;;;;9.72;46.47;100299.66;6895243;28;20223;-84
2022/02/08 08:27:57;;;;;;;6.20;3.33;;;;;;;9.90;46.30;100300.38;6916162;28;20211;-84
2022/02/08 08:31:20;;;;;;;6.63;2.93;;;;;;;10.01;46.17;100292.84;6931018;28;20238;-84
2022/02/08 08:34:42;;;;;;;9.10;3.53;;;;;;;9.46;46.44;100274.66;6913421;28;20572;-83
2022/02/08 08:38:06;;;;;;;6.47;2.80;;;;;;;9.33;46.94;100245.50;6920777;28;20214;-84
2022/02/08 08:41:33;;;;;;;8.23;3.50;;;;;;;10.11;46.39;100300.81;6916866;28;20236;-83
2022/02/08 08:48:24;;;;;;;10.23;3.73;;;;;;;10.05;45.36;100263.75;6925432;28;20298;-83
2022/02/08 08:49:24;;;;;;;6.40;2.53;;;;;;;10.09;45.28;100263.22;6903807;28;20235;-84
2022/02/08 08:52:50;;;;;;;18.83;3.43;;;;;;;10.11;45.67;100271.16;6914407;28;20237;-82
2022/02/08 08:56:12;;;;;;;7.13;2.93;;;;;;;10.65;44.92;100260.56;6917459;28;20208;-82
2022/02/08 08:59:33;;;;;;;9.50;2.87;;;;;;;10.51;44.69;100263.91;6914554;28;20219;-83
2022/02/08 09:02:55;;;;;;;5.77;2.60;;;;;;;10.73;44.62;100256.97;6918539;28;20254;-80
2022/02/08 09:06:24;;;;;;;9.93;3.00;;;;;;;10.74;43.90;100253.31;6916687;28;20664;-82
2022/02/08 09:09:50;;;;;;;6.47;3.03;;;;;;;10.43;43.93;100207.31;6894220;28;20226;-82
2022/02/08 09:13:22;;;;;;;5.33;3.13;;;;;;;10.81;42.58;100200.34;6909794;28;20215;-83
2022/02/08 09:16:49;;;;;;;6.83;2.80;;;;;;;11.07;42.66;100253.06;6916421;28;20676;-83
2022/02/08 09:20:28;;;;;;;10.80;2.80;;;;;;;11.64;42.11;100229.38;6913465;28;20237;-85
2022/02/08 09:27:57;;;;;;;6.63;2.63;;;;;;;12.13;41.14;100274.84;6918500;28;20197;-85
2022/02/08 09:31:20;;;;;;;6.30;3.00;;;;;;;11.27;42.09;100251.63;6909914;28;20231;-87
2022/02/08 09:34:42;;;;;;;7.53;2.93;;;;;;;11.34;42.22;100268.81;6924954;28;20203;-89
2022/02/08 09:38:04;;;;;;;6.47;2.70;;;;;;;11.40;42.29;100222.19;6927798;28;20255;-87
2022/02/08 09:41:31;;;;;;;8.10;2.40;;;;;;;10.77;42.57;100143.19;6916688;28;20228;-86
2022/02/08 09:44:54;;;;;;;7.80;2.87;;;;;;;11.82;41.09;100265.94;6918910;28;20290;-85
2022/02/08 09:48:22;;;;;;;5.80;2.60;;;;;;;11.75;41.33;100259.53;6918862;28;20675;-85
2022/02/08 09:51:51;;;;;;;9.07;2.70;;;;;;;11.38;41.70;100263.88;6917115;28;20235;-85
2022/02/08 09:55:13;;;;;;;9.27;3.47;;;;;;;11.89;41.88;100255.22;6906306;28;20284;-85
2022/02/08 09:58:36;;;;;;;11.67;3.57;;;;;;;12.40;40.97;100257.25;6898325;28;20212;-85
2022/02/08 10:01:59;;;;;;;5.57;2.70;;;;;;;12.34;40.87;100250.66;6899847;28;20231;-85
2022/02/08 10:05:24;;;;;;;8.50;3.13;;;;;;;13.04;39.81;100243.94;6911463;28;20216;-86
2022/02/08 10:08:46;;;;;;;8.80;2.53;;;;;;;13.11;38.82;100246.75;6918917;28;20234;-86
2022/02/08 10:12:10;;;;;;;5.93;2.67;;;;;;;13.17;39.75;100249.53;6917215;28;20247;-86
2022/02/08 10:23:05;;;;;;;3.80;2.57;;;;;;;14.00;38.56;100222.88;6903246;23;20617;-88
2022/02/08 10:26:37;;;;;;;5.70;2.50;;;;;;;14.10;37.95;100213.38;6880905;28;20869;-84
2022/02/08 10:30:16;;;;;;;6.53;2.93;;;;;;;14.48;36.76;100206.69;6883219;28;20215;-85
2022/02/08 10:37:39;;;;;;;7.57;2.70;;;;;;;13.70;39.13;100256.53;6862370;28;20198;-89
2022/02/08 10:41:10;;;;;;;6.17;3.07;;;;;;;14.01;39.16;100247.09;6860340;28;20230;-89
2022/02/08 10:44:34;;;;;;;11.50;3.33;;;;;;;14.26;38.91;100243.00;6842643;28;20197;-84
2022/02/08 10:47:57;;;;;;;10.83;2.70;;;;;;;14.80;37.05;100232.44;6837266;29;20210;-84
2022/02/08 10:51:20;;;;;;;5.60;2.43;;;;;;;14.58;37.47;100228.06;6837349;28;20245;-87
2022/02/08 10:54:47;;;;;;;5.47;2.50;;;;;;;14.29;38.28;100209.22;6858103;28;20218;-84
2022/02/08 10:58:20;;;;;;;9.20;4.37;;;;;;;14.38;39.09;100230.59;6864422;28;20192;-86
2022/02/08 11:01:50;;;;;;;10.43;4.80;;;;;;;14.95;38.74;100246.72;6863579;28;20693;-86
2022/02/08 11:05:20;;;;;;;4.57;2.60;;;;;;;14.11;39.58;100217.78;6864285;28;20193;-88
2022/02/08 11:12:36;;;;;;;9.90;4.03;;;;;;;14.09;41.14;100217.13;6850546;28;20232;-85
2022/02/08 11:16:14;;;;;;;6.33;2.87;;;;;;;14.24;40.69;100220.66;6842942;28;20207;-87
2022/02/08 11:19:49;;;;;;;5.53;2.63;;;;;;;13.50;41.47;100209.34;6861595;28;20627;-87
2022/02/08 11:23:20;;;;;;;3.97;2.10;;;;;;;14.16;40.67;100218.03;6872072;28;20713;-87
2022/02/08 11:26:45;;;;;;;4.03;2.33;;;;;;;14.20;40.31;100204.94;6846872;28;20655;-87
2022/02/08 11:30:14;;;;;;;7.37;2.30;;;;;;;13.82;41.22;100215.19;6851470;28;20742;-86
2022/02/08 11:33:55;;;;;;;4.13;2.00;;;;;;;13.98;41.29;100197.84;6861529;28;20204;-87
2022/02/08 11:45:31;;;;;;;9.13;2.47;;;;;;;14.86;40.23;100190.91;6868814;28;20290;-86
2022/02/08 11:56:41;;;;;;;6.20;2.43;;;;;;;14.51;41.47;100190.00;6872603;28;20559;-86
2022/02/08 12:00:20;;;;;;;4.13;2.07;;;;;;;14.77;41.36;100189.38;6855541;28;20208;-86
2022/02/08 12:07:20;;;;;;;5.93;2.10;;;;;;;15.12;40.73;100188.34;6861101;28;20207;-85
2022/02/08 12:10:47;;;;;;;4.93;2.30;;;;;;;14.92;40.99;100182.78;6858943;28;20244;-87
2022/02/08 12:32:54;;;;;;;4.47;2.37;;;;;;;14.74;42.20;100170.78;6843425;28;20291;-84
2022/02/08 12:36:32;;;;;;;7.97;2.40;;;;;;;14.79;42.36;100151.97;6844776;29;20191;-84
2022/02/08 12:55:22;;;;;;;5.23;2.63;;;;;;;15.24;45.04;100170.41;6845204;28;20636;-84
2022/02/08 13:02:45;;;;;;;2.10;1.90;;;;;;;14.75;45.63;100161.59;6865999;28;20257;-85
2022/02/08 13:14:13;;;;;;;5.37;2.20;;;;;;;15.12;44.57;100155.72;6870193;28;20224;-84
2022/02/08 14:01:49;;;;;;;3.20;2.30;;;;;;;14.64;46.88;100127.66;6885151;28;20213;-84
2022/02/08 14:09:16;;;;;;;4.93;2.20;;;;;;;14.44;47.36;100117.69;6857921;28;20198;-84
2022/02/08 14:16:32;;;;;;;6.13;2.13;;;;;;;14.37;47.74;100106.81;6867231;28;20187;-84
2022/02/08 14:20:17;;;;;;;4.00;1.70;;;;;;;14.40;47.75;100103.69;6867539;28;20204;-84
2022/02/08 14:23:53;;;;;;;5.13;2.10;;;;;;;14.24;47.55;100086.88;6866450;28;20658;-84
2022/02/08 14:35:35;;;;;;;4.20;2.60;;;;;;;14.42;47.63;100108.94;6848860;28;20207;-86
2022/02/08 14:57:43;;;;;;;3.47;2.60;;;;;;;14.36;47.61;100099.72;6866291;28;20213;-84
2022/02/08 15:08:27;;;;;;;5.37;2.27;;;;;;;14.12;48.00;100088.44;6869750;28;20299;-84
2022/02/08 15:12:06;;;;;;;5.63;2.47;;;;;;;14.75;46.94;100116.25;6869578;28;20234;-84
2022/02/08 15:15:33;;;;;;;7.73;2.20;;;;;;;14.19;47.93;100125.47;6869094;28;20214;-84
2022/02/08 15:18:55;;;;;;;4.93;2.17;;;;;;;14.56;47.67;100129.69;6864381;28;20218;-84
2022/02/08 15:22:18;;;;;;;3.07;1.90;;;;;;;13.76;48.83;100104.78;6844652;28;20679;-84
2022/02/08 15:25:40;;;;;;;6.27;2.40;;;;;;;14.37;47.99;100116.81;6849265;28;20205;-84
2022/02/08 15:29:03;;;;;;;5.13;2.60;;;;;;;14.33;47.49;100126.41;6853974;28;20210;-84
2022/02/08 15:32:25;;;;;;;5.20;2.20;;;;;;;14.30;47.28;100118.66;6876242;28;20226;-85
2022/02/08 15:35:47;;;;;;;2.97;1.90;;;;;;;14.29;47.63;100125.13;6876413;28;20211;-84
2022/02/08 15:39:09;;;;;;;3.00;2.10;;;;;;;14.33;47.23;100100.09;6865755;28;20211;-84
2022/02/08 15:42:32;;;;;;;5.47;2.30;;;;;;;14.72;46.78;100129.38;6875176;28;20232;-84
2022/02/08 15:46:00;;;;;;;1.90;1.67;;;;;;;13.88;48.22;100092.41;6874415;28;20678;-83
2022/02/08 15:49:22;;;;;;;3.13;2.10;;;;;;;14.14;47.95;100110.75;6882258;28;20202;-85
2022/02/08 15:56:52;;;;;;;2.70;2.33;;;;;;;13.95;46.89;100041.78;7032047;27;20550;-79
2022/02/08 16:00:59;;;;;;;4.77;2.43;;;;;;;13.94;48.16;100143.16;7032082;28;20206;-79
2022/02/08 16:07:58;;;;;;;6.27;2.83;;;;;;;13.41;49.18;100108.41;7023345;28;20579;-79
2022/02/08 16:11:41;;;;;;;3.23;2.10;;;;;;;13.63;49.32;100149.91;7004790;28;20214;-80
2022/02/08 16:18:51;;;;;;;1.93;1.70;;;;;;;12.80;50.81;100052.00;7003992;28;20616;-80
2022/02/08 16:26:03;;;;;;;2.83;2.00;;;;;;;12.87;51.54;100071.03;7003882;28;20224;-78
2022/02/08 16:33:26;;;;;;;4.90;2.47;;;;;;;12.30;52.67;100041.13;7022702;28;20199;-78
2022/02/08 16:55:28;;;;;;;4.00;2.57;;;;;;;13.24;52.79;100187.34;7019639;28;20297;-78
2022/02/08 16:58:53;;;;;;;3.90;2.67;;;;;;;13.33;52.46;100180.81;7025266;28;20338;-78
2022/02/08 17:02:19;;;;;;;5.13;2.40;;;;;;;13.15;51.29;100085.59;7028520;28;20646;-78
2022/02/08 17:05:41;;;;;;;4.60;2.33;;;;;;;13.19;51.74;100103.13;7021690;28;20203;-78
2022/02/08 17:09:07;;;;;;;3.43;2.23;;;;;;;13.47;51.38;100109.50;7010443;28;20207;-78
2022/02/08 17:12:36;;;;;;;7.83;3.40;;;;;;;13.87;50.99;100177.47;7010332;28;20214;-78
2022/02/08 17:16:08;;;;;;;6.30;3.30;;;;;;;13.15;51.03;100064.75;7010239;28;20223;-78
2022/02/08 17:34:24;;;;;;;3.33;2.97;;;;;;;13.53;50.96;100117.72;7010407;28;20223;-78
2022/02/08 17:34:52;;;;;;;5.80;2.60;;;;;;;13.68;51.55;100197.06;7025842;28;20222;-78
2022/02/08 17:45:54;;;;;;;5.80;2.50;;;;;;;13.66;50.63;100111.56;6994798;28;20288;-78
2022/02/08 17:49:16;;;;;;;6.73;3.50;;;;;;;13.34;51.23;100112.06;6986300;28;20217;-78
2022/02/08 17:52:40;;;;;;;4.50;2.97;;;;;;;13.61;50.48;100085.06;6991694;28;20691;-78
2022/02/08 17:56:02;;;;;;;5.13;3.23;;;;;;;13.25;50.61;100045.47;6991473;28;20574;-78
2022/02/08 17:59:24;;;;;;;8.20;3.93;;;;;;;13.34;50.65;100076.84;6990509;28;20277;-78
2022/02/08 18:02:48;;;;;;;7.83;3.50;;;;;;;13.43;50.76;100100.91;6994618;28;20644;-78
2022/02/08 18:06:10;;;;;;;4.40;3.90;;;;;;;13.32;50.54;100070.75;6995768;28;20201;-78
2022/02/08 18:09:32;;;;;;;5.50;4.90;;;;;;;13.06;50.85;100046.97;6998110;28;20209;-78
2022/02/08 18:12:57;;;;;;;5.17;4.53;;;;;;;13.25;50.54;100049.03;6993652;28;20635;-78
2022/02/08 18:16:22;;;;;;;7.07;4.57;;;;;;;13.76;50.45;100133.78;7001044;28;20252;-77
2022/02/08 18:19:51;;;;;;;5.50;3.80;;;;;;;13.38;50.18;100051.88;6994974;28;20204;-77
2022/02/08 18:23:35;;;;;;;6.47;4.70;;;;;;;13.55;51.38;100137.31;6991408;28;20213;-77
2022/02/08 19:07:28;;;;;;;8.60;4.43;;;;;;;13.06;53.65;100201.31;6995745;28;20187;-77
2022/02/08 19:18:41;;;;;;;12.10;5.87;;;;;;;12.59;52.81;100099.78;6979876;28;20198;-77
2022/02/08 19:22:03;;;;;;;11.07;5.47;;;;;;;12.95;52.56;100120.53;6986435;28;20207;-77
2022/02/08 19:25:24;;;;;;;8.47;5.27;;;;;;;13.39;52.84;100209.88;6988827;28;20202;-77
2022/02/08 19:28:46;;;;;;;26.83;19.93;;;;;;;12.80;52.38;100111.53;6989217;28;20648;-77
2022/02/08 19:32:11;;;;;;;12.60;8.27;;;;;;;12.82;52.33;100111.38;6990302;28;20198;-77
2022/02/08 19:35:33;;;;;;;11.37;9.20;;;;;;;13.37;51.60;100207.34;6986543;28;20236;-77
2022/02/08 19:38:57;;;;;;;6.30;3.63;;;;;;;13.25;51.59;100218.81;6998814;28;20209;-77
2022/02/08 19:42:18;;;;;;;4.53;3.07;;;;;;;12.79;52.51;100192.91;6990391;28;20429;-77
2022/02/08 19:45:43;;;;;;;8.50;3.13;;;;;;;12.84;52.38;100212.16;6991761;28;20198;-77
2022/02/08 19:49:07;;;;;;;7.87;3.53;;;;;;;12.94;52.62;100237.09;6994911;28;20579;-77
2022/02/08 19:52:31;;;;;;;5.47;2.60;;;;;;;12.44;53.10;100128.69;6995560;28;20229;-78
2022/02/08 19:56:02;;;;;;;8.83;3.33;;;;;;;12.67;54.04;100208.78;6984665;28;20226;-79
2022/02/08 19:59:34;;;;;;;9.33;3.30;;;;;;;12.38;54.38;100178.13;6980170;28;20202;-79
2022/02/08 20:02:59;;;;;;;5.57;2.90;;;;;;;12.94;54.08;100237.09;6979926;28;20209;-78
2022/02/08 20:06:24;;;;;;;7.20;3.57;;;;;;;12.01;54.77;100108.69;6979692;28;20232;-75
2022/02/08 20:09:46;;;;;;;7.07;3.37;;;;;;;12.76;54.54;100196.00;6981607;28;20194;-79
2022/02/08 20:13:09;;;;;;;7.47;4.03;;;;;;;12.35;54.73;100154.16;6982834;28;20643;-79
2022/02/08 20:16:31;;;;;;;8.67;3.93;;;;;;;12.69;54.23;100200.50;7001983;28;20546;-79
2022/02/08 20:19:55;;;;;;;11.90;6.97;;;;;;;12.56;54.36;100165.13;7005382;28;20242;-80
2022/02/08 20:23:20;;;;;;;8.10;4.30;;;;;;;12.45;54.58;100152.88;6979775;28;20207;-80
2022/02/08 20:27:01;;;;;;;6.57;3.77;;;;;;;13.15;54.21;100256.22;6979856;28;20196;-80
2022/02/08 20:30:26;;;;;;;13.63;5.90;;;;;;;13.13;54.36;100266.38;6979007;28;20190;-79
2022/02/08 20:33:49;;;;;;;8.93;4.53;;;;;;;12.51;54.36;100164.81;6978915;28;20206;-79
2022/02/08 20:37:11;;;;;;;9.80;4.13;;;;;;;12.25;55.64;100229.28;6979135;28;20210;-79
2022/02/08 20:40:38;;;;;;;7.27;3.60;;;;;;;12.15;55.35;100134.91;6979825;28;20210;-79
2022/02/08 20:44:01;;;;;;;12.87;4.20;;;;;;;12.83;55.73;100253.78;6983879;28;20202;-79
2022/02/08 20:47:25;;;;;;;8.13;3.93;;;;;;;12.87;56.22;100261.34;6984278;28;20353;-79
2022/02/08 20:50:48;;;;;;;5.80;4.03;;;;;;;12.07;56.66;100199.00;6984727;28;20211;-79
2022/02/08 20:54:09;;;;;;;9.40;3.77;;;;;;;13.04;56.42;100272.91;6983784;28;20226;-79
2022/02/08 20:57:36;;;;;;;5.87;4.17;;;;;;;11.89;57.74;100145.28;6984567;28;20545;-79
2022/02/08 21:00:58;;;;;;;6.37;3.90;;;;;;;12.41;57.71;100192.16;6984467;28;20268;-79
2022/02/08 21:04:29;;;;;;;8.03;4.50;;;;;;;12.83;57.90;100267.31;6983734;28;20301;-79
2022/02/08 21:07:51;;;;;;;8.83;4.67;;;;;;;12.61;58.17;100236.59;6983652;28;20206;-79
2022/02/08 21:11:13;;;;;;;11.57;5.47;;;;;;;13.06;57.63;100276.25;6983560;28;20226;-80
2022/02/08 21:14:36;;;;;;;9.73;5.87;;;;;;;11.63;58.40;100089.91;6983310;28;20237;-79
2022/02/08 21:17:58;;;;;;;11.07;5.50;;;;;;;12.99;57.87;100253.66;6983409;28;20209;-80
2022/02/08 21:21:20;;;;;;;10.27;5.37;;;;;;;12.38;58.62;100200.59;6983412;28;20239;-80
2022/02/08 21:24:42;;;;;;;8.63;5.37;;;;;;;12.17;58.81;100184.22;6982055;28;20201;-80
2022/02/08 21:28:45;;;;;;;10.20;5.10;;;;;;;12.43;58.60;100165.75;6983797;28;20206;-92
2022/02/08 21:54:18;;;;;;;8.07;5.40;;;;;;;12.46;59.15;100202.41;6957448;28;20256;-84
2022/02/08 21:57:48;;;;;;;10.63;5.47;;;;;;;12.78;58.64;100243.53;6985431;28;20210;-83
